sensor_id;sensor_type;location;lat;lon;timestamp;P1;durP1;ratioP1;P2;durP2;ratioP2
26042;SDS011;13818;52.156;5.382;2022-12-07T00:01:41;13.80;;;4.57;;
26042;SDS011;13818;52.156;5.382;2022-12-07T00:04:10;7.60;;;3.83;;
26042;SDS011;13818;52.156;5.382;2022-12-07T00:06:39;7.90;;;3.78;;
26042;SDS011;13818;52.156;5.382;2022-12-07T00:09:07;11.93;;;4.38;;
26042;SDS011;13818;52.156;5.382;2022-12-07T00:11:36;9.35;;;4.00;;
26042;SDS011;13818;52.156;5.382;2022-12-07T00:14:04;12.82;;;3.80;;
26042;SDS011;13818;52.156;5.382;2022-12-07T00:16:32;7.90;;;3.80;;
26042;SDS011;13818;52.156;5.382;2022-12-07T00:19:01;10.13;;;3.70;;
26042;SDS011;13818;52.156;5.382;2022-12-07T00:21:29;6.57;;;3.07;;
26042;SDS011;13818;52.156;5.382;2022-12-07T00:23:56;6.28;;;3.17;;
26042;SDS011;13818;52.156;5.382;2022-12-07T00:26:24;9.68;;;3.65;;
26042;SDS011;13818;52.156;5.382;2022-12-07T00:28:53;7.25;;;3.35;;
26042;SDS011;13818;52.156;5.382;2022-12-07T00:31:22;9.63;;;5.30;;
26042;SDS011;13818;52.156;5.382;2022-12-07T00:33:50;6.35;;;3.28;;
26042;SDS011;13818;52.156;5.382;2022-12-07T00:36:18;10.85;;;3.83;;
26042;SDS011;13818;52.156;5.382;2022-12-07T00:38:46;7.15;;;3.53;;
26042;SDS011;13818;52.156;5.382;2022-12-07T00:41:13;10.93;;;3.58;;
26042;SDS011;13818;52.156;5.382;2022-12-07T00:43:41;5.07;;;3.03;;
26042;SDS011;13818;52.156;5.382;2022-12-07T00:46:10;15.32;;;3.67;;
26042;SDS011;13818;52.156;5.382;2022-12-07T00:48:38;13.07;;;3.50;;
26042;SDS011;13818;52.156;5.382;2022-12-07T00:51:05;9.32;;;3.28;;
26042;SDS011;13818;52.156;5.382;2022-12-07T00:53:34;7.22;;;3.38;;
26042;SDS011;13818;52.156;5.382;2022-12-07T00:58:30;7.70;;;2.80;;
26042;SDS011;13818;52.156;5.382;2022-12-07T01:00:59;10.10;;;3.50;;
26042;SDS011;13818;52.156;5.382;2022-12-07T01:03:26;9.18;;;3.58;;
26042;SDS011;13818;52.156;5.382;2022-12-07T01:05:53;7.38;;;3.20;;
26042;SDS011;13818;52.156;5.382;2022-12-07T01:08:20;6.50;;;3.03;;
26042;SDS011;13818;52.156;5.382;2022-12-07T01:10:49;12.25;;;3.38;;
26042;SDS011;13818;52.156;5.382;2022-12-07T01:13:15;11.25;;;2.85;;
26042;SDS011;13818;52.156;5.382;2022-12-07T01:15:42;6.72;;;3.60;;
26042;SDS011;13818;52.156;5.382;2022-12-07T01:18:10;10.65;;;3.22;;
26042;SDS011;13818;52.156;5.382;2022-12-07T01:20:37;11.63;;;2.80;;
26042;SDS011;13818;52.156;5.382;2022-12-07T01:23:03;11.88;;;3.47;;
26042;SDS011;13818;52.156;5.382;2022-12-07T01:25:31;6.55;;;2.58;;
26042;SDS011;13818;52.156;5.382;2022-12-07T01:27:59;10.00;;;3.00;;
26042;SDS011;13818;52.156;5.382;2022-12-07T01:30:25;6.20;;;2.78;;
26042;SDS011;13818;52.156;5.382;2022-12-07T01:32:52;9.63;;;4.18;;
26042;SDS011;13818;52.156;5.382;2022-12-07T01:35:18;8.88;;;2.80;;
26042;SDS011;13818;52.156;5.382;2022-12-07T01:37:45;6.55;;;2.28;;
26042;SDS011;13818;52.156;5.382;2022-12-07T01:40:11;12.32;;;2.92;;
26042;SDS011;13818;52.156;5.382;2022-12-07T01:42:38;6.43;;;2.22;;
26042;SDS011;13818;52.156;5.382;2022-12-07T01:48:04;6.95;;;2.55;;
26042;SDS011;13818;52.156;5.382;2022-12-07T01:53:01;9.93;;;2.42;;
26042;SDS011;13818;52.156;5.382;2022-12-07T01:55:31;9.77;;;2.38;;
26042;SDS011;13818;52.156;5.382;2022-12-07T01:57:58;7.95;;;2.60;;
26042;SDS011;13818;52.156;5.382;2022-12-07T02:00:25;6.47;;;2.20;;
26042;SDS011;13818;52.156;5.382;2022-12-07T02:02:54;8.70;;;2.53;;
26042;SDS011;13818;52.156;5.382;2022-12-07T02:05:25;6.25;;;2.75;;
26042;SDS011;13818;52.156;5.382;2022-12-07T02:07:53;5.68;;;2.42;;
26042;SDS011;13818;52.156;5.382;2022-12-07T02:10:22;4.47;;;2.25;;
26042;SDS011;13818;52.156;5.382;2022-12-07T02:12:50;9.00;;;2.17;;
26042;SDS011;13818;52.156;5.382;2022-12-07T02:15:21;7.30;;;2.53;;
26042;SDS011;13818;52.156;5.382;2022-12-07T02:17:52;5.97;;;2.35;;
26042;SDS011;13818;52.156;5.382;2022-12-07T02:20:28;10.48;;;2.67;;
26042;SDS011;13818;52.156;5.382;2022-12-07T02:26:08;9.02;;;2.30;;
26042;SDS011;13818;52.156;5.382;2022-12-07T02:28:55;7.22;;;2.63;;
26042;SDS011;13818;52.156;5.382;2022-12-07T02:31:36;9.55;;;2.15;;
26042;SDS011;13818;52.156;5.382;2022-12-07T02:34:11;8.77;;;2.10;;
26042;SDS011;13818;52.156;5.382;2022-12-07T02:36:45;6.53;;;2.30;;
26042;SDS011;13818;52.156;5.382;2022-12-07T02:39:17;8.60;;;2.50;;
26042;SDS011;13818;52.156;5.382;2022-12-07T02:41:49;2.75;;;1.73;;
26042;SDS011;13818;52.156;5.382;2022-12-07T02:44:23;6.13;;;2.25;;
26042;SDS011;13818;52.156;5.382;2022-12-07T02:46:53;6.85;;;2.17;;
26042;SDS011;13818;52.156;5.382;2022-12-07T02:49:23;12.57;;;2.30;;
26042;SDS011;13818;52.156;5.382;2022-12-07T02:51:52;4.90;;;2.30;;
26042;SDS011;13818;52.156;5.382;2022-12-07T02:54:19;5.55;;;1.77;;
26042;SDS011;13818;52.156;5.382;2022-12-07T02:56:48;6.47;;;1.88;;
26042;SDS011;13818;52.156;5.382;2022-12-07T02:59:19;6.88;;;2.33;;
26042;SDS011;13818;52.156;5.382;2022-12-07T03:02:00;6.50;;;2.03;;
26042;SDS011;13818;52.156;5.382;2022-12-07T03:04:38;5.88;;;2.35;;
26042;SDS011;13818;52.156;5.382;2022-12-07T03:07:11;7.65;;;2.03;;
26042;SDS011;13818;52.156;5.382;2022-12-07T03:09:50;8.10;;;1.90;;
26042;SDS011;13818;52.156;5.382;2022-12-07T03:12:27;7.30;;;2.20;;
26042;SDS011;13818;52.156;5.382;2022-12-07T03:15:00;3.90;;;1.70;;
26042;SDS011;13818;52.156;5.382;2022-12-07T03:17:31;6.65;;;1.80;;
26042;SDS011;13818;52.156;5.382;2022-12-07T03:20:02;7.55;;;1.67;;
26042;SDS011;13818;52.156;5.382;2022-12-07T03:22:32;6.70;;;1.65;;
26042;SDS011;13818;52.156;5.382;2022-12-07T03:25:03;2.30;;;1.20;;
26042;SDS011;13818;52.156;5.382;2022-12-07T03:27:34;6.35;;;1.38;;
26042;SDS011;13818;52.156;5.382;2022-12-07T03:30:07;4.45;;;1.60;;
26042;SDS011;13818;52.156;5.382;2022-12-07T03:32:38;9.73;;;1.35;;
26042;SDS011;13818;52.156;5.382;2022-12-07T03:35:11;7.38;;;1.70;;
26042;SDS011;13818;52.156;5.382;2022-12-07T03:37:43;10.82;;;1.65;;
26042;SDS011;13818;52.156;5.382;2022-12-07T03:40:16;7.20;;;1.40;;
26042;SDS011;13818;52.156;5.382;2022-12-07T03:42:48;4.80;;;1.50;;
26042;SDS011;13818;52.156;5.382;2022-12-07T03:45:18;5.22;;;1.48;;
26042;SDS011;13818;52.156;5.382;2022-12-07T03:47:49;3.80;;;1.58;;
26042;SDS011;13818;52.156;5.382;2022-12-07T03:50:21;4.53;;;1.60;;
26042;SDS011;13818;52.156;5.382;2022-12-07T03:52:55;3.45;;;1.58;;
26042;SDS011;13818;52.156;5.382;2022-12-07T03:55:27;2.22;;;1.65;;
26042;SDS011;13818;52.156;5.382;2022-12-07T03:57:58;6.57;;;1.38;;
26042;SDS011;13818;52.156;5.382;2022-12-07T04:00:30;5.45;;;1.90;;
26042;SDS011;13818;52.156;5.382;2022-12-07T04:02:56;7.43;;;2.22;;
26042;SDS011;13818;52.156;5.382;2022-12-07T04:05:23;5.10;;;1.52;;
26042;SDS011;13818;52.156;5.382;2022-12-07T04:07:50;3.25;;;1.40;;
26042;SDS011;13818;52.156;5.382;2022-12-07T04:10:17;7.03;;;1.40;;
26042;SDS011;13818;52.156;5.382;2022-12-07T04:12:44;9.32;;;1.92;;
26042;SDS011;13818;52.156;5.382;2022-12-07T04:15:10;3.00;;;1.25;;
26042;SDS011;13818;52.156;5.382;2022-12-07T04:17:39;3.38;;;1.27;;
26042;SDS011;13818;52.156;5.382;2022-12-07T04:20:06;8.23;;;1.25;;
26042;SDS011;13818;52.156;5.382;2022-12-07T04:22:33;4.40;;;0.93;;
26042;SDS011;13818;52.156;5.382;2022-12-07T04:24:59;4.65;;;1.33;;
26042;SDS011;13818;52.156;5.382;2022-12-07T04:27:26;5.18;;;1.40;;
26042;SDS011;13818;52.156;5.382;2022-12-07T04:29:52;6.15;;;1.02;;
26042;SDS011;13818;52.156;5.382;2022-12-07T04:32:20;3.85;;;1.10;;
26042;SDS011;13818;52.156;5.382;2022-12-07T04:34:48;6.57;;;1.10;;
26042;SDS011;13818;52.156;5.382;2022-12-07T04:37:14;5.68;;;1.50;;
26042;SDS011;13818;52.156;5.382;2022-12-07T04:39:42;11.35;;;1.20;;
26042;SDS011;13818;52.156;5.382;2022-12-07T04:42:09;5.47;;;1.17;;
26042;SDS011;13818;52.156;5.382;2022-12-07T04:44:37;5.03;;;1.15;;
26042;SDS011;13818;52.156;5.382;2022-12-07T04:47:04;5.25;;;1.48;;
26042;SDS011;13818;52.156;5.382;2022-12-07T04:49:30;5.55;;;1.40;;
26042;SDS011;13818;52.156;5.382;2022-12-07T04:51:58;5.93;;;1.05;;
26042;SDS011;13818;52.156;5.382;2022-12-07T04:54:25;3.85;;;1.17;;
26042;SDS011;13818;52.156;5.382;2022-12-07T04:56:51;4.10;;;0.93;;
26042;SDS011;13818;52.156;5.382;2022-12-07T04:59:18;1.60;;;0.77;;
26042;SDS011;13818;52.156;5.382;2022-12-07T05:01:44;3.00;;;0.93;;
26042;SDS011;13818;52.156;5.382;2022-12-07T05:04:11;5.97;;;1.42;;
26042;SDS011;13818;52.156;5.382;2022-12-07T05:06:37;3.90;;;0.77;;
26042;SDS011;13818;52.156;5.382;2022-12-07T05:09:05;8.15;;;1.75;;
26042;SDS011;13818;52.156;5.382;2022-12-07T05:11:32;3.72;;;0.80;;
26042;SDS011;13818;52.156;5.382;2022-12-07T05:14:06;6.60;;;1.38;;
26042;SDS011;13818;52.156;5.382;2022-12-07T05:16:34;8.57;;;1.10;;
26042;SDS011;13818;52.156;5.382;2022-12-07T05:19:00;4.47;;;0.85;;
26042;SDS011;13818;52.156;5.382;2022-12-07T05:21:27;5.72;;;0.88;;
26042;SDS011;13818;52.156;5.382;2022-12-07T05:23:53;13.00;;;1.98;;
26042;SDS011;13818;52.156;5.382;2022-12-07T05:26:21;2.22;;;0.47;;
26042;SDS011;13818;52.156;5.382;2022-12-07T05:28:50;7.53;;;0.82;;
26042;SDS011;13818;52.156;5.382;2022-12-07T05:31:17;2.92;;;0.45;;
26042;SDS011;13818;52.156;5.382;2022-12-07T05:33:43;12.90;;;1.00;;
26042;SDS011;13818;52.156;5.382;2022-12-07T05:36:10;7.60;;;0.63;;
26042;SDS011;13818;52.156;5.382;2022-12-07T05:38:36;9.82;;;0.70;;
26042;SDS011;13818;52.156;5.382;2022-12-07T05:41:03;6.53;;;1.13;;
26042;SDS011;13818;52.156;5.382;2022-12-07T05:43:32;2.40;;;0.60;;
26042;SDS011;13818;52.156;5.382;2022-12-07T05:45:59;1.17;;;0.40;;
26042;SDS011;13818;52.156;5.382;2022-12-07T05:48:25;11.40;;;0.82;;
26042;SDS011;13818;52.156;5.382;2022-12-07T05:50:52;5.05;;;0.60;;
26042;SDS011;13818;52.156;5.382;2022-12-07T05:53:19;3.78;;;0.50;;
26042;SDS011;13818;52.156;5.382;2022-12-07T05:55:45;4.40;;;1.60;;
26042;SDS011;13818;52.156;5.382;2022-12-07T05:58:11;2.88;;;0.60;;
26042;SDS011;13818;52.156;5.382;2022-12-07T06:00:57;6.40;;;1.00;;
26042;SDS011;13818;52.156;5.382;2022-12-07T06:03:24;8.20;;;1.40;;
26042;SDS011;13818;52.156;5.382;2022-12-07T06:05:51;4.20;;;1.08;;
26042;SDS011;13818;52.156;5.382;2022-12-07T06:08:18;8.02;;;0.88;;
26042;SDS011;13818;52.156;5.382;2022-12-07T06:10:46;4.72;;;1.45;;
26042;SDS011;13818;52.156;5.382;2022-12-07T06:13:33;8.15;;;2.17;;
26042;SDS011;13818;52.156;5.382;2022-12-07T06:16:00;8.63;;;1.17;;
26042;SDS011;13818;52.156;5.382;2022-12-07T06:18:26;7.25;;;0.90;;
26042;SDS011;13818;52.156;5.382;2022-12-07T06:20:53;10.15;;;1.33;;
26042;SDS011;13818;52.156;5.382;2022-12-07T06:23:19;5.45;;;0.98;;
26042;SDS011;13818;52.156;5.382;2022-12-07T06:25:46;4.07;;;2.25;;
26042;SDS011;13818;52.156;5.382;2022-12-07T06:28:12;7.70;;;1.50;;
26042;SDS011;13818;52.156;5.382;2022-12-07T06:30:39;5.65;;;1.42;;
26042;SDS011;13818;52.156;5.382;2022-12-07T06:33:06;11.68;;;2.05;;
26042;SDS011;13818;52.156;5.382;2022-12-07T06:35:33;9.02;;;1.60;;
26042;SDS011;13818;52.156;5.382;2022-12-07T06:38:00;8.63;;;1.42;;
26042;SDS011;13818;52.156;5.382;2022-12-07T06:40:26;5.25;;;1.67;;
26042;SDS011;13818;52.156;5.382;2022-12-07T06:42:52;13.50;;;1.95;;
26042;SDS011;13818;52.156;5.382;2022-12-07T06:45:19;12.02;;;2.38;;
26042;SDS011;13818;52.156;5.382;2022-12-07T06:47:45;8.65;;;1.95;;
26042;SDS011;13818;52.156;5.382;2022-12-07T06:50:13;7.13;;;1.40;;
26042;SDS011;13818;52.156;5.382;2022-12-07T06:52:40;10.35;;;1.58;;
26042;SDS011;13818;52.156;5.382;2022-12-07T06:55:06;12.80;;;2.35;;
26042;SDS011;13818;52.156;5.382;2022-12-07T06:57:33;6.18;;;1.98;;
26042;SDS011;13818;52.156;5.382;2022-12-07T06:59:59;5.53;;;1.20;;
26042;SDS011;13818;52.156;5.382;2022-12-07T07:02:26;9.23;;;1.60;;
26042;SDS011;13818;52.156;5.382;2022-12-07T07:04:52;7.38;;;1.30;;
26042;SDS011;13818;52.156;5.382;2022-12-07T07:07:20;2.78;;;0.73;;
26042;SDS011;13818;52.156;5.382;2022-12-07T07:09:47;5.78;;;1.75;;
26042;SDS011;13818;52.156;5.382;2022-12-07T07:12:15;8.85;;;1.50;;
26042;SDS011;13818;52.156;5.382;2022-12-07T07:14:41;4.45;;;1.02;;
26042;SDS011;13818;52.156;5.382;2022-12-07T07:17:08;4.60;;;1.02;;
26042;SDS011;13818;52.156;5.382;2022-12-07T07:19:35;5.85;;;1.42;;
26042;SDS011;13818;52.156;5.382;2022-12-07T07:22:02;6.15;;;1.63;;
26042;SDS011;13818;52.156;5.382;2022-12-07T07:24:30;9.85;;;1.50;;
26042;SDS011;13818;52.156;5.382;2022-12-07T07:26:57;5.43;;;1.15;;
26042;SDS011;13818;52.156;5.382;2022-12-07T07:29:23;8.45;;;1.30;;
26042;SDS011;13818;52.156;5.382;2022-12-07T07:31:50;6.70;;;1.65;;
26042;SDS011;13818;52.156;5.382;2022-12-07T07:34:18;3.63;;;0.93;;
26042;SDS011;13818;52.156;5.382;2022-12-07T07:36:45;9.05;;;1.83;;
26042;SDS011;13818;52.156;5.382;2022-12-07T07:39:11;5.47;;;1.70;;
26042;SDS011;13818;52.156;5.382;2022-12-07T07:41:40;7.80;;;1.20;;
26042;SDS011;13818;52.156;5.382;2022-12-07T07:44:06;8.43;;;1.83;;
26042;SDS011;13818;52.156;5.382;2022-12-07T07:46:32;7.32;;;1.40;;
26042;SDS011;13818;52.156;5.382;2022-12-07T07:48:59;7.88;;;1.55;;
26042;SDS011;13818;52.156;5.382;2022-12-07T07:51:25;8.32;;;1.52;;
26042;SDS011;13818;52.156;5.382;2022-12-07T07:53:52;5.28;;;1.65;;
26042;SDS011;13818;52.156;5.382;2022-12-07T07:56:18;7.95;;;1.98;;
26042;SDS011;13818;52.156;5.382;2022-12-07T07:58:46;6.60;;;1.52;;
26042;SDS011;13818;52.156;5.382;2022-12-07T08:01:12;7.13;;;1.70;;
26042;SDS011;13818;52.156;5.382;2022-12-07T08:03:41;4.60;;;1.85;;
26042;SDS011;13818;52.156;5.382;2022-12-07T08:06:07;11.48;;;1.88;;
26042;SDS011;13818;52.156;5.382;2022-12-07T08:08:34;10.13;;;1.77;;
26042;SDS011;13818;52.156;5.382;2022-12-07T08:11:04;7.65;;;1.60;;
26042;SDS011;13818;52.156;5.382;2022-12-07T08:13:30;4.78;;;1.52;;
26042;SDS011;13818;52.156;5.382;2022-12-07T08:15:58;7.95;;;1.50;;
26042;SDS011;13818;52.156;5.382;2022-12-07T08:18:29;8.25;;;2.00;;
26042;SDS011;13818;52.156;5.382;2022-12-07T08:20:58;7.00;;;1.45;;
26042;SDS011;13818;52.156;5.382;2022-12-07T08:23:26;5.82;;;1.48;;
26042;SDS011;13818;52.156;5.382;2022-12-07T08:25:52;4.70;;;1.10;;
26042;SDS011;13818;52.156;5.382;2022-12-07T08:28:19;3.33;;;1.20;;
26042;SDS011;13818;52.156;5.382;2022-12-07T08:30:45;5.82;;;1.67;;
26042;SDS011;13818;52.156;5.382;2022-12-07T08:33:13;8.00;;;1.70;;
26042;SDS011;13818;52.156;5.382;2022-12-07T08:35:39;5.13;;;1.50;;
26042;SDS011;13818;52.156;5.382;2022-12-07T08:38:06;5.90;;;1.73;;
26042;SDS011;13818;52.156;5.382;2022-12-07T08:40:32;6.40;;;1.33;;
26042;SDS011;13818;52.156;5.382;2022-12-07T08:43:00;4.07;;;1.30;;
26042;SDS011;13818;52.156;5.382;2022-12-07T08:45:26;6.97;;;1.42;;
26042;SDS011;13818;52.156;5.382;2022-12-07T08:47:57;4.60;;;1.40;;
26042;SDS011;13818;52.156;5.382;2022-12-07T08:50:29;10.70;;;2.00;;
26042;SDS011;13818;52.156;5.382;2022-12-07T08:52:57;7.15;;;1.80;;
26042;SDS011;13818;52.156;5.382;2022-12-07T08:55:24;6.90;;;1.60;;
26042;SDS011;13818;52.156;5.382;2022-12-07T08:57:52;13.30;;;1.67;;
26042;SDS011;13818;52.156;5.382;2022-12-07T09:00:19;10.70;;;1.83;;
26042;SDS011;13818;52.156;5.382;2022-12-07T09:02:46;4.00;;;1.00;;
26042;SDS011;13818;52.156;5.382;2022-12-07T09:05:13;2.95;;;1.30;;
26042;SDS011;13818;52.156;5.382;2022-12-07T09:07:42;7.15;;;1.25;;
26042;SDS011;13818;52.156;5.382;2022-12-07T09:10:11;8.85;;;2.65;;
26042;SDS011;13818;52.156;5.382;2022-12-07T09:12:38;4.90;;;1.58;;
26042;SDS011;13818;52.156;5.382;2022-12-07T09:15:04;4.28;;;1.30;;
26042;SDS011;13818;52.156;5.382;2022-12-07T09:17:32;4.18;;;1.13;;
26042;SDS011;13818;52.156;5.382;2022-12-07T09:19:59;9.13;;;1.35;;
26042;SDS011;13818;52.156;5.382;2022-12-07T09:22:27;6.07;;;1.50;;
26042;SDS011;13818;52.156;5.382;2022-12-07T09:24:56;4.70;;;1.17;;
26042;SDS011;13818;52.156;5.382;2022-12-07T09:27:23;8.40;;;1.30;;
26042;SDS011;13818;52.156;5.382;2022-12-07T09:29:49;5.72;;;1.10;;
26042;SDS011;13818;52.156;5.382;2022-12-07T09:32:15;8.25;;;1.30;;
26042;SDS011;13818;52.156;5.382;2022-12-07T09:34:42;2.72;;;0.95;;
26042;SDS011;13818;52.156;5.382;2022-12-07T09:37:09;3.92;;;1.02;;
26042;SDS011;13818;52.156;5.382;2022-12-07T09:39:37;9.70;;;1.08;;
26042;SDS011;13818;52.156;5.382;2022-12-07T09:42:05;7.93;;;1.33;;
26042;SDS011;13818;52.156;5.382;2022-12-07T09:44:33;4.38;;;1.23;;
26042;SDS011;13818;52.156;5.382;2022-12-07T09:47:00;2.22;;;0.90;;
26042;SDS011;13818;52.156;5.382;2022-12-07T09:49:28;5.10;;;0.98;;
26042;SDS011;13818;52.156;5.382;2022-12-07T09:51:59;3.55;;;0.85;;
26042;SDS011;13818;52.156;5.382;2022-12-07T09:54:27;11.60;;;1.95;;
26042;SDS011;13818;52.156;5.382;2022-12-07T09:56:55;7.82;;;1.25;;
26042;SDS011;13818;52.156;5.382;2022-12-07T09:59:23;5.72;;;1.05;;
26042;SDS011;13818;52.156;5.382;2022-12-07T10:01:49;4.30;;;1.05;;
26042;SDS011;13818;52.156;5.382;2022-12-07T10:04:16;7.57;;;1.42;;
26042;SDS011;13818;52.156;5.382;2022-12-07T10:06:46;8.38;;;1.00;;
26042;SDS011;13818;52.156;5.382;2022-12-07T10:09:13;3.85;;;0.77;;
26042;SDS011;13818;52.156;5.382;2022-12-07T10:11:57;4.78;;;1.02;;
26042;SDS011;13818;52.156;5.382;2022-12-07T10:14:30;5.20;;;1.55;;
26042;SDS011;13818;52.156;5.382;2022-12-07T10:16:58;2.40;;;0.90;;
26042;SDS011;13818;52.156;5.382;2022-12-07T10:19:26;3.90;;;1.30;;
26042;SDS011;13818;52.156;5.382;2022-12-07T10:22:04;3.70;;;0.88;;
26042;SDS011;13818;52.156;5.382;2022-12-07T10:24:36;4.28;;;0.93;;
26042;SDS011;13818;52.156;5.382;2022-12-07T10:27:04;3.27;;;0.70;;
26042;SDS011;13818;52.156;5.382;2022-12-07T10:29:46;5.10;;;1.10;;
26042;SDS011;13818;52.156;5.382;2022-12-07T10:32:25;4.20;;;1.02;;
26042;SDS011;13818;52.156;5.382;2022-12-07T10:35:15;5.35;;;1.08;;
26042;SDS011;13818;52.156;5.382;2022-12-07T10:37:45;13.20;;;1.52;;
26042;SDS011;13818;52.156;5.382;2022-12-07T10:40:23;5.85;;;1.15;;
26042;SDS011;13818;52.156;5.382;2022-12-07T10:43:16;4.13;;;0.98;;
26042;SDS011;13818;52.156;5.382;2022-12-07T10:45:58;4.60;;;0.95;;
26042;SDS011;13818;52.156;5.382;2022-12-07T10:48:40;5.13;;;1.00;;
26042;SDS011;13818;52.156;5.382;2022-12-07T10:51:15;5.82;;;1.20;;
26042;SDS011;13818;52.156;5.382;2022-12-07T10:53:53;5.88;;;1.20;;
26042;SDS011;13818;52.156;5.382;2022-12-07T10:59:49;4.32;;;0.77;;
26042;SDS011;13818;52.156;5.382;2022-12-07T11:02:26;5.13;;;1.02;;
26042;SDS011;13818;52.156;5.382;2022-12-07T11:05:11;7.40;;;1.73;;
26042;SDS011;13818;52.156;5.382;2022-12-07T11:07:47;7.10;;;0.93;;
26042;SDS011;13818;52.156;5.382;2022-12-07T11:10:24;9.77;;;1.27;;
26042;SDS011;13818;52.156;5.382;2022-12-07T11:13:02;6.25;;;1.15;;
26042;SDS011;13818;52.156;5.382;2022-12-07T11:15:44;2.53;;;1.02;;
26042;SDS011;13818;52.156;5.382;2022-12-07T11:18:26;3.65;;;0.73;;
26042;SDS011;13818;52.156;5.382;2022-12-07T11:20:58;6.07;;;1.23;;
26042;SDS011;13818;52.156;5.382;2022-12-07T11:23:34;4.35;;;1.00;;
26042;SDS011;13818;52.156;5.382;2022-12-07T11:26:11;4.67;;;1.37;;
26042;SDS011;13818;52.156;5.382;2022-12-07T11:28:50;3.03;;;1.00;;
26042;SDS011;13818;52.156;5.382;2022-12-07T11:31:33;5.95;;;1.58;;
26042;SDS011;13818;52.156;5.382;2022-12-07T11:34:06;4.55;;;1.35;;
26042;SDS011;13818;52.156;5.382;2022-12-07T11:36:41;4.32;;;2.30;;
26042;SDS011;13818;52.156;5.382;2022-12-07T11:39:12;5.88;;;1.08;;
26042;SDS011;13818;52.156;5.382;2022-12-07T11:41:47;7.30;;;1.77;;
26042;SDS011;13818;52.156;5.382;2022-12-07T11:44:20;7.72;;;1.30;;
26042;SDS011;13818;52.156;5.382;2022-12-07T11:46:58;5.97;;;1.30;;
26042;SDS011;13818;52.156;5.382;2022-12-07T11:49:37;12.05;;;1.58;;
26042;SDS011;13818;52.156;5.382;2022-12-07T11:52:10;7.43;;;1.10;;
26042;SDS011;13818;52.156;5.382;2022-12-07T11:54:44;7.20;;;1.52;;
26042;SDS011;13818;52.156;5.382;2022-12-07T11:57:16;9.43;;;1.60;;
26042;SDS011;13818;52.156;5.382;2022-12-07T11:59:47;6.53;;;1.15;;
26042;SDS011;13818;52.156;5.382;2022-12-07T12:02:16;5.47;;;0.98;;
26042;SDS011;13818;52.156;5.382;2022-12-07T12:04:51;7.95;;;1.15;;
26042;SDS011;13818;52.156;5.382;2022-12-07T12:07:22;4.38;;;0.95;;
26042;SDS011;13818;52.156;5.382;2022-12-07T12:09:51;3.72;;;0.95;;
26042;SDS011;13818;52.156;5.382;2022-12-07T12:12:24;5.38;;;0.82;;
26042;SDS011;13818;52.156;5.382;2022-12-07T12:15:08;9.05;;;0.90;;
26042;SDS011;13818;52.156;5.382;2022-12-07T12:17:49;2.95;;;0.63;;
26042;SDS011;13818;52.156;5.382;2022-12-07T12:20:26;4.28;;;0.98;;
26042;SDS011;13818;52.156;5.382;2022-12-07T12:22:57;3.40;;;0.70;;
26042;SDS011;13818;52.156;5.382;2022-12-07T12:25:27;3.65;;;1.00;;
26042;SDS011;13818;52.156;5.382;2022-12-07T12:27:57;8.98;;;0.82;;
26042;SDS011;13818;52.156;5.382;2022-12-07T12:30:33;6.18;;;1.10;;
26042;SDS011;13818;52.156;5.382;2022-12-07T12:33:05;5.70;;;0.85;;
26042;SDS011;13818;52.156;5.382;2022-12-07T12:35:41;3.22;;;1.02;;
26042;SDS011;13818;52.156;5.382;2022-12-07T12:38:24;2.75;;;0.75;;
26042;SDS011;13818;52.156;5.382;2022-12-07T12:40:59;5.80;;;1.02;;
26042;SDS011;13818;52.156;5.382;2022-12-07T12:49:30;5.63;;;0.80;;
26042;SDS011;13818;52.156;5.382;2022-12-07T12:52:00;3.85;;;0.80;;
26042;SDS011;13818;52.156;5.382;2022-12-07T12:54:57;3.80;;;0.70;;
26042;SDS011;13818;52.156;5.382;2022-12-07T12:57:27;3.05;;;0.35;;
26042;SDS011;13818;52.156;5.382;2022-12-07T12:59:56;3.13;;;0.60;;
26042;SDS011;13818;52.156;5.382;2022-12-07T13:02:24;4.20;;;0.70;;
26042;SDS011;13818;52.156;5.382;2022-12-07T13:04:54;4.25;;;0.50;;
26042;SDS011;13818;52.156;5.382;2022-12-07T13:13:25;3.22;;;0.30;;
26042;SDS011;13818;52.156;5.382;2022-12-07T13:18:55;1.95;;;0.30;;
26042;SDS011;13818;52.156;5.382;2022-12-07T13:24:14;2.55;;;0.70;;
26042;SDS011;13818;52.156;5.382;2022-12-07T13:26:42;4.10;;;0.32;;
26042;SDS011;13818;52.156;5.382;2022-12-07T13:29:11;1.50;;;0.40;;
26042;SDS011;13818;52.156;5.382;2022-12-07T13:31:40;1.65;;;0.60;;
26042;SDS011;13818;52.156;5.382;2022-12-07T13:36:56;1.23;;;0.80;;
26042;SDS011;13818;52.156;5.382;2022-12-07T13:39:26;7.03;;;0.85;;
26042;SDS011;13818;52.156;5.382;2022-12-07T13:41:54;6.50;;;1.13;;
26042;SDS011;13818;52.156;5.382;2022-12-07T13:44:23;4.57;;;1.08;;
26042;SDS011;13818;52.156;5.382;2022-12-07T13:46:52;2.83;;;0.68;;
26042;SDS011;13818;52.156;5.382;2022-12-07T13:49:24;5.05;;;0.60;;
26042;SDS011;13818;52.156;5.382;2022-12-07T13:51:53;3.00;;;1.02;;
26042;SDS011;13818;52.156;5.382;2022-12-07T13:54:21;2.05;;;0.55;;
26042;SDS011;13818;52.156;5.382;2022-12-07T13:56:50;5.38;;;0.93;;
26042;SDS011;13818;52.156;5.382;2022-12-07T13:59:18;2.97;;;0.88;;
26042;SDS011;13818;52.156;5.382;2022-12-07T14:01:47;2.33;;;0.80;;
26042;SDS011;13818;52.156;5.382;2022-12-07T14:04:18;2.28;;;0.90;;
26042;SDS011;13818;52.156;5.382;2022-12-07T14:06:53;9.60;;;1.05;;
26042;SDS011;13818;52.156;5.382;2022-12-07T14:09:20;7.72;;;1.30;;
26042;SDS011;13818;52.156;5.382;2022-12-07T14:11:50;4.07;;;1.05;;
26042;SDS011;13818;52.156;5.382;2022-12-07T14:14:19;4.75;;;0.90;;
26042;SDS011;13818;52.156;5.382;2022-12-07T14:16:58;4.88;;;1.23;;
26042;SDS011;13818;52.156;5.382;2022-12-07T14:19:42;4.22;;;1.10;;
26042;SDS011;13818;52.156;5.382;2022-12-07T14:22:18;10.90;;;1.98;;
26042;SDS011;13818;52.156;5.382;2022-12-07T14:24:47;4.28;;;1.65;;
26042;SDS011;13818;52.156;5.382;2022-12-07T14:27:18;9.15;;;1.77;;
26042;SDS011;13818;52.156;5.382;2022-12-07T14:29:45;5.50;;;1.25;;
26042;SDS011;13818;52.156;5.382;2022-12-07T14:32:18;4.55;;;1.58;;
26042;SDS011;13818;52.156;5.382;2022-12-07T14:34:53;2.75;;;1.42;;
26042;SDS011;13818;52.156;5.382;2022-12-07T14:37:27;7.20;;;1.77;;
26042;SDS011;13818;52.156;5.382;2022-12-07T14:39:54;6.30;;;1.45;;
26042;SDS011;13818;52.156;5.382;2022-12-07T14:42:23;4.00;;;1.58;;
26042;SDS011;13818;52.156;5.382;2022-12-07T14:44:53;7.55;;;1.30;;
26042;SDS011;13818;52.156;5.382;2022-12-07T14:47:19;11.02;;;4.00;;
26042;SDS011;13818;52.156;5.382;2022-12-07T14:49:46;4.72;;;1.20;;
26042;SDS011;13818;52.156;5.382;2022-12-07T14:52:13;7.05;;;1.05;;
26042;SDS011;13818;52.156;5.382;2022-12-07T14:54:42;4.63;;;1.10;;
26042;SDS011;13818;52.156;5.382;2022-12-07T14:57:09;4.53;;;1.20;;
26042;SDS011;13818;52.156;5.382;2022-12-07T14:59:37;5.38;;;0.88;;
26042;SDS011;13818;52.156;5.382;2022-12-07T15:02:04;5.65;;;1.10;;
26042;SDS011;13818;52.156;5.382;2022-12-07T15:04:31;2.75;;;1.10;;
26042;SDS011;13818;52.156;5.382;2022-12-07T15:06:58;5.25;;;1.02;;
26042;SDS011;13818;52.156;5.382;2022-12-07T15:09:25;3.67;;;1.08;;
26042;SDS011;13818;52.156;5.382;2022-12-07T15:11:52;1.58;;;0.68;;
26042;SDS011;13818;52.156;5.382;2022-12-07T15:14:18;5.60;;;0.80;;
26042;SDS011;13818;52.156;5.382;2022-12-07T15:16:46;4.03;;;0.95;;
26042;SDS011;13818;52.156;5.382;2022-12-07T15:19:13;3.92;;;0.65;;
26042;SDS011;13818;52.156;5.382;2022-12-07T15:21:41;3.38;;;0.98;;
26042;SDS011;13818;52.156;5.382;2022-12-07T15:24:08;4.38;;;1.17;;
26042;SDS011;13818;52.156;5.382;2022-12-07T15:26:35;3.80;;;1.20;;
26042;SDS011;13818;52.156;5.382;2022-12-07T15:29:02;4.35;;;1.42;;
26042;SDS011;13818;52.156;5.382;2022-12-07T15:31:29;3.67;;;1.38;;
26042;SDS011;13818;52.156;5.382;2022-12-07T15:33:57;2.90;;;1.52;;
26042;SDS011;13818;52.156;5.382;2022-12-07T15:36:24;6.80;;;1.65;;